Time;durP1;ratioP1;P1;durP2;ratioP2;P2;SDS_P1;SDS_P2;PMS_P1;PMS_P2;Temp;Humidity;BMP_temperature;BMP_pressure;BME280_temperature;BME280_humidity;BME280_pressure;Samples;Min_cycle;Max_cycle;Signal;HPM_P1;HPM_P2
2024/01/06 00:02:16;;;;;;;10.57;5.22;;;7.20;96.00;;;;;;5014725;28;20197;-91
2024/01/06 00:04:43;;;;;;;5.50;3.95;;;7.20;96.00;;;;;;5015051;28;20208;-91
2024/01/06 00:07:13;;;;;;;6.00;3.75;;;7.10;95.80;;;;;;5014567;28;20196;-91
2024/01/06 00:09:40;;;;;;;5.38;4.13;;;7.20;95.80;;;;;;4997243;28;20232;-92
2024/01/06 00:12:08;;;;;;;6.68;5.10;;;7.10;95.60;;;;;;5016495;28;20195;-92
2024/01/06 00:14:36;;;;;;;4.05;3.35;;;7.10;95.50;;;;;;5026664;28;20238;-91
2024/01/06 00:17:03;;;;;;;4.10;3.10;;;7.10;95.60;;;;;;5034388;28;20652;-92
2024/01/06 00:19:30;;;;;;;4.15;2.72;;;7.10;95.50;;;;;;5034151;28;20199;-90
2024/01/06 00:22:00;;;;;;;3.53;2.42;;;7.10;95.30;;;;;;5027790;28;20544;-91
2024/01/06 00:24:29;;;;;;;3.00;1.83;;;7.00;95.00;;;;;;5014434;28;20177;-91
2024/01/06 00:26:55;;;;;;;3.47;2.03;;;7.00;95.00;;;;;;5014579;28;20199;-91
2024/01/06 00:29:22;;;;;;;2.85;1.20;;;7.00;94.90;;;;;;5014674;28;20197;-91
2024/01/06 00:31:49;;;;;;;3.85;1.60;;;7.00;94.70;;;;;;5014214;28;20195;-90
2024/01/06 00:34:16;;;;;;;2.28;1.25;;;7.00;94.60;;;;;;5025429;28;20202;-90
2024/01/06 00:36:43;;;;;;;4.47;2.08;;;7.00;94.60;;;;;;5032989;28;20247;-92
2024/01/06 00:39:10;;;;;;;2.45;1.25;;;7.00;94.50;;;;;;5034200;28;20195;-91
2024/01/06 00:41:40;;;;;;;2.70;1.20;;;6.90;94.40;;;;;;5033366;28;20292;-91
2024/01/06 00:44:07;;;;;;;2.15;1.10;;;6.90;94.30;;;;;;5034916;28;20196;-92
2024/01/06 00:46:34;;;;;;;2.47;1.10;;;6.90;94.30;;;;;;5033740;28;20203;-92
2024/01/06 00:49:02;;;;;;;3.90;1.00;;;6.90;94.30;;;;;;5034420;28;20184;-92
2024/01/06 00:51:32;;;;;;;2.38;0.90;;;6.90;94.20;;;;;;5033408;28;20183;-91
2024/01/06 00:54:04;;;;;;;3.00;1.20;;;6.90;94.00;;;;;;5033782;28;20187;-92
2024/01/06 00:56:31;;;;;;;2.63;1.33;;;6.90;93.90;;;;;;5032878;28;20204;-92
2024/01/06 00:59:02;;;;;;;2.13;0.85;;;6.90;93.90;;;;;;5034426;28;20180;-92
2024/01/06 01:01:29;;;;;;;2.40;1.05;;;6.80;93.80;;;;;;5033925;28;20568;-92
2024/01/06 01:03:56;;;;;;;1.90;0.90;;;6.80;93.60;;;;;;5034372;28;20594;-93
2024/01/06 01:06:23;;;;;;;3.15;1.20;;;6.80;93.50;;;;;;5033485;28;20199;-90
2024/01/06 01:08:50;;;;;;;2.38;1.10;;;6.70;93.50;;;;;;5032894;28;20622;-91
2024/01/06 01:11:17;;;;;;;4.10;2.03;;;6.70;93.50;;;;;;5033122;28;20215;-92
2024/01/06 01:13:44;;;;;;;4.63;3.42;;;6.70;93.50;;;;;;5014243;28;20180;-91
2024/01/06 01:16:12;;;;;;;8.25;4.20;;;6.60;93.40;;;;;;5013755;28;20187;-92
2024/01/06 01:18:39;;;;;;;4.28;2.67;;;6.60;93.60;;;;;;5013592;28;20299;-92
2024/01/06 01:21:07;;;;;;;4.18;2.55;;;6.60;93.60;;;;;;5013899;28;20604;-92
2024/01/06 01:23:34;;;;;;;3.30;1.90;;;6.60;93.30;;;;;;5006321;28;20191;-91
2024/01/06 01:26:03;;;;;;;3.17;1.88;;;6.60;93.20;;;;;;5033565;28;20690;-90
2024/01/06 01:28:30;;;;;;;4.45;1.40;;;6.50;93.20;;;;;;5033968;28;20195;-90
2024/01/06 01:30:57;;;;;;;2.55;1.23;;;6.50;93.00;;;;;;5032975;28;20199;-91
2024/01/06 01:33:26;;;;;;;1.90;0.95;;;6.50;93.00;;;;;;5016423;28;20578;-92
2024/01/06 01:35:53;;;;;;;2.72;1.30;;;6.40;93.10;;;;;;5013036;28;20180;-91
2024/01/06 01:38:20;;;;;;;2.33;1.27;;;6.50;92.70;;;;;;5013483;28;20211;-92
2024/01/06 01:40:47;;;;;;;2.55;1.30;;;6.40;93.00;;;;;;5013235;28;20189;-92
2024/01/06 01:43:18;;;;;;;2.53;1.45;;;6.40;92.90;;;;;;5012878;28;20191;-92
2024/01/06 01:45:46;;;;;;;2.80;1.30;;;6.40;92.70;;;;;;5013026;28;20215;-91
2024/01/06 01:48:13;;;;;;;4.20;1.60;;;6.30;92.60;;;;;;4996067;28;20258;-92
2024/01/06 01:50:41;;;;;;;3.00;1.27;;;6.30;92.70;;;;;;5020636;28;20193;-92
2024/01/06 01:53:09;;;;;;;2.70;1.50;;;6.20;92.70;;;;;;5018160;28;20242;-93
2024/01/06 01:55:36;;;;;;;2.80;1.50;;;6.10;92.50;;;;;;4995724;28;20200;-91
2024/01/06 01:58:03;;;;;;;2.75;1.35;;;6.10;92.90;;;;;;4995672;28;20208;-91
2024/01/06 02:00:30;;;;;;;2.10;1.00;;;6.10;93.20;;;;;;5013194;28;20221;-91
2024/01/06 02:03:02;;;;;;;6.03;1.77;;;6.00;93.30;;;;;;5012472;28;20196;-90
2024/01/06 02:05:29;;;;;;;2.80;1.40;;;6.10;93.20;;;;;;5013649;28;20520;-90
2024/01/06 02:07:57;;;;;;;2.55;1.30;;;6.00;93.40;;;;;;5013171;28;20231;-90
2024/01/06 02:10:24;;;;;;;2.42;1.20;;;6.00;93.50;;;;;;5012832;28;20248;-91
2024/01/06 02:12:52;;;;;;;5.32;1.80;;;5.90;93.50;;;;;;5012498;28;20207;-91
2024/01/06 02:15:20;;;;;;;2.95;1.60;;;5.90;93.70;;;;;;5013302;28;20196;-90
2024/01/06 02:17:47;;;;;;;2.65;1.50;;;5.90;93.40;;;;;;5012637;28;20216;-91
2024/01/06 02:20:19;;;;;;;2.55;1.10;;;5.80;93.10;;;;;;5029261;28;20326;-91
2024/01/06 02:22:48;;;;;;;3.30;1.73;;;5.90;93.00;;;;;;5016612;28;20259;-94
2024/01/06 02:25:15;;;;;;;3.72;1.35;;;5.80;93.10;;;;;;5013169;28;20199;-91
2024/01/06 02:27:42;;;;;;;4.57;1.42;;;5.70;93.00;;;;;;5013162;28;20195;-92
2024/01/06 02:30:10;;;;;;;3.15;1.30;;;5.70;93.00;;;;;;5012715;28;20559;-91
2024/01/06 02:32:37;;;;;;;4.20;1.58;;;5.60;93.20;;;;;;5013275;28;20192;-91
2024/01/06 02:35:05;;;;;;;2.70;1.30;;;5.60;93.70;;;;;;5012023;28;20184;-90
2024/01/06 02:37:32;;;;;;;3.40;1.33;;;5.60;93.80;;;;;;5013057;28;20209;-90
2024/01/06 02:40:00;;;;;;;2.25;1.20;;;5.60;93.90;;;;;;5013162;28;20192;-89
2024/01/06 02:42:27;;;;;;;3.20;1.70;;;5.60;93.60;;;;;;5012378;28;20531;-90
2024/01/06 02:44:54;;;;;;;3.38;1.55;;;5.50;93.40;;;;;;5012877;28;20199;-90
2024/01/06 02:47:21;;;;;;;2.65;1.30;;;5.40;93.70;;;;;;5013175;28;20601;-90
2024/01/06 02:49:48;;;;;;;2.40;1.60;;;5.40;94.10;;;;;;5012719;28;20200;-90
2024/01/06 02:52:15;;;;;;;2.20;1.20;;;5.40;94.20;;;;;;5012155;28;20227;-90
2024/01/06 02:54:42;;;;;;;3.00;1.60;;;5.50;94.10;;;;;;5012428;28;20196;-89
2024/01/06 02:57:13;;;;;;;3.40;1.63;;;5.50;94.10;;;;;;5012240;28;20232;-91
2024/01/06 02:59:40;;;;;;;2.55;1.50;;;5.40;94.30;;;;;;5014517;28;20199;-91
2024/01/06 03:02:08;;;;;;;4.50;1.90;;;5.40;94.10;;;;;;5028159;28;20192;-91
2024/01/06 03:04:35;;;;;;;3.97;2.67;;;5.50;94.40;;;;;;5036103;28;20206;-93
2024/01/06 03:07:03;;;;;;;3.05;1.90;;;5.50;94.40;;;;;;5035713;28;20199;-92
2024/01/06 03:09:29;;;;;;;3.58;2.05;;;5.50;93.90;;;;;;5035843;28;20245;-94
2024/01/06 03:11:57;;;;;;;3.40;2.90;;;5.50;93.90;;;;;;5024846;28;20243;-91
2024/01/06 03:14:25;;;;;;;3.67;2.92;;;5.40;94.20;;;;;;5016514;28;20191;-92
2024/01/06 03:16:52;;;;;;;4.78;3.13;;;5.40;94.10;;;;;;5015813;28;20188;-91
2024/01/06 03:19:19;;;;;;;4.70;3.65;;;5.40;94.30;;;;;;5015775;28;20196;-92
2024/01/06 03:21:46;;;;;;;4.22;2.92;;;5.40;94.40;;;;;;5015676;28;20189;-91
2024/01/06 03:24:13;;;;;;;3.58;2.35;;;5.50;94.30;;;;;;5015420;28;20279;-92
2024/01/06 03:26:40;;;;;;;3.75;2.30;;;5.50;94.10;;;;;;5015801;28;20293;-92
2024/01/06 03:29:06;;;;;;;4.25;1.85;;;5.50;94.00;;;;;;5021107;28;20279;-91
2024/01/06 03:31:35;;;;;;;2.10;1.25;;;5.50;94.10;;;;;;5027591;28;20279;-92
2024/01/06 03:34:03;;;;;;;2.60;1.60;;;5.40;93.80;;;;;;5015783;28;20595;-92
2024/01/06 03:36:30;;;;;;;3.70;1.60;;;5.50;93.90;;;;;;5015294;28;20646;-92
2024/01/06 03:38:56;;;;;;;2.55;1.83;;;5.40;93.50;;;;;;5015361;28;20302;-91
2024/01/06 03:41:23;;;;;;;2.92;1.95;;;5.50;93.10;;;;;;5015197;28;20275;-91
2024/01/06 03:43:50;;;;;;;2.58;1.50;;;5.50;93.50;;;;;;5015350;28;20279;-92
2024/01/06 03:46:17;;;;;;;5.35;1.80;;;5.40;93.30;;;;;;5015133;28;20271;-92
2024/01/06 03:48:45;;;;;;;3.58;1.77;;;5.40;93.50;;;;;;5015183;28;20287;-92
2024/01/06 03:51:13;;;;;;;3.38;1.80;;;5.40;93.40;;;;;;5028288;28;20584;-92
2024/01/06 03:53:41;;;;;;;2.88;1.60;;;5.40;93.30;;;;;;5015270;28;20227;-92
2024/01/06 03:56:07;;;;;;;2.50;1.50;;;5.40;93.20;;;;;;5015382;28;20192;-91
2024/01/06 03:58:37;;;;;;;2.70;1.35;;;5.40;93.20;;;;;;5014811;28;20307;-91
2024/01/06 04:01:04;;;;;;;2.58;1.38;;;5.40;93.10;;;;;;5028145;28;20195;-93
2024/01/06 04:03:31;;;;;;;2.70;1.48;;;5.40;92.90;;;;;;5015240;28;20299;-91
2024/01/06 04:05:59;;;;;;;4.10;2.55;;;5.40;92.90;;;;;;4997737;28;20196;-91
2024/01/06 04:08:27;;;;;;;3.45;2.70;;;5.40;92.70;;;;;;5014575;28;20184;-91
2024/01/06 04:10:54;;;;;;;3.00;1.40;;;5.40;92.60;;;;;;5014615;28;20270;-91
2024/01/06 04:13:21;;;;;;;2.30;1.40;;;5.40;92.20;;;;;;5014520;28;20319;-91
2024/01/06 04:15:48;;;;;;;3.13;1.70;;;5.30;91.80;;;;;;5014894;28;20292;-91
2024/01/06 04:18:15;;;;;;;2.63;1.30;;;5.30;92.00;;;;;;5014721;28;20220;-91
2024/01/06 04:20:42;;;;;;;2.40;1.23;;;5.30;91.90;;;;;;5014834;28;20291;-90
2024/01/06 04:23:10;;;;;;;2.92;1.60;;;5.20;91.80;;;;;;5014378;28;20541;-92
2024/01/06 04:25:37;;;;;;;2.60;1.85;;;5.20;91.80;;;;;;4997417;28;20195;-92
2024/01/06 04:28:04;;;;;;;2.95;1.85;;;5.20;91.80;;;;;;5014381;28;20287;-91
2024/01/06 04:30:31;;;;;;;3.53;2.55;;;5.10;91.80;;;;;;4997304;28;20223;-92
2024/01/06 04:32:58;;;;;;;2.72;1.35;;;5.10;91.70;;;;;;5014356;28;20613;-91
2024/01/06 04:35:26;;;;;;;2.40;1.25;;;5.10;91.20;;;;;;5014599;28;20279;-90
2024/01/06 04:37:53;;;;;;;3.30;1.77;;;5.10;90.50;;;;;;4997259;28;20307;-91
2024/01/06 04:40:21;;;;;;;3.40;2.10;;;5.00;90.90;;;;;;5014584;28;20227;-92
2024/01/06 04:42:48;;;;;;;2.92;1.88;;;4.90;91.20;;;;;;5013554;28;20279;-92
2024/01/06 04:45:15;;;;;;;2.80;1.50;;;5.00;91.40;;;;;;5031388;28;20282;-91
2024/01/06 04:47:42;;;;;;;2.28;1.20;;;4.90;91.30;;;;;;5033765;28;20713;-93
2024/01/06 04:50:10;;;;;;;2.58;1.55;;;4.90;91.40;;;;;;5033580;28;20286;-92
2024/01/06 04:52:37;;;;;;;2.47;1.35;;;4.90;91.20;;;;;;5034024;28;20230;-92
2024/01/06 04:55:04;;;;;;;3.00;1.80;;;4.90;91.50;;;;;;5026466;28;20226;-92
2024/01/06 04:57:32;;;;;;;3.28;1.90;;;4.90;91.30;;;;;;5034132;28;20278;-92
2024/01/06 05:00:02;;;;;;;3.90;2.25;;;4.90;91.40;;;;;;5031871;28;20327;-92
2024/01/06 05:02:31;;;;;;;3.42;1.70;;;4.80;91.30;;;;;;4994450;28;20657;-92
2024/01/06 05:04:58;;;;;;;3.65;2.15;;;4.80;91.30;;;;;;5001375;28;20216;-91
2024/01/06 05:07:25;;;;;;;3.58;1.65;;;4.80;91.30;;;;;;5013786;28;20284;-92
2024/01/06 05:09:52;;;;;;;3.75;1.85;;;4.90;91.20;;;;;;5013806;28;20228;-91
2024/01/06 05:12:19;;;;;;;2.55;1.40;;;4.90;91.00;;;;;;5014993;28;20287;-92
2024/01/06 05:14:47;;;;;;;2.60;1.50;;;4.80;90.80;;;;;;5013713;28;20698;-92
2024/01/06 05:17:14;;;;;;;3.03;1.70;;;4.80;91.00;;;;;;5013741;28;20283;-91
2024/01/06 05:19:42;;;;;;;2.75;1.45;;;4.80;91.10;;;;;;5013790;28;20243;-92
2024/01/06 05:22:09;;;;;;;2.67;1.75;;;4.80;91.20;;;;;;5012874;28;20299;-91
2024/01/06 05:24:38;;;;;;;2.33;1.40;;;4.80;91.30;;;;;;5016964;28;20278;-92
2024/01/06 05:27:05;;;;;;;2.70;1.48;;;4.80;91.50;;;;;;5033472;28;20191;-90
2024/01/06 05:29:32;;;;;;;2.80;1.52;;;4.80;91.50;;;;;;5033277;28;20286;-92
2024/01/06 05:32:01;;;;;;;3.05;1.65;;;4.80;91.60;;;;;;5033483;28;20227;-91
2024/01/06 05:34:28;;;;;;;2.83;1.85;;;4.80;91.60;;;;;;5032590;28;20195;-90
2024/01/06 05:36:55;;;;;;;3.80;2.20;;;4.90;91.60;;;;;;5033388;28;20183;-91
2024/01/06 05:39:24;;;;;;;3.58;2.00;;;4.90;91.20;;;;;;5032590;28;20286;-93
2024/01/06 05:41:51;;;;;;;4.20;2.47;;;4.80;91.20;;;;;;5033739;28;20205;-90
2024/01/06 05:44:18;;;;;;;3.95;2.58;;;4.80;91.40;;;;;;5032328;28;20191;-90
2024/01/06 05:46:45;;;;;;;3.42;1.83;;;4.80;91.60;;;;;;5031195;28;20278;-90
2024/01/06 05:49:14;;;;;;;3.13;2.20;;;4.70;91.70;;;;;;5031082;28;20266;-90
2024/01/06 05:51:45;;;;;;;2.75;1.85;;;4.80;92.00;;;;;;5032925;28;20226;-88
2024/01/06 05:54:12;;;;;;;2.40;1.55;;;4.80;92.10;;;;;;5018541;28;20555;-91
2024/01/06 05:56:39;;;;;;;3.03;1.85;;;4.80;92.10;;;;;;5015421;28;20239;-91
2024/01/06 05:59:06;;;;;;;2.53;1.73;;;4.80;92.10;;;;;;5032642;28;20677;-91
2024/01/06 06:01:32;;;;;;;2.70;1.70;;;4.80;92.10;;;;;;5033089;28;20301;-92
2024/01/06 06:03:59;;;;;;;3.00;1.90;;;4.80;92.30;;;;;;5032687;28;20709;-91
2024/01/06 06:06:28;;;;;;;3.50;2.22;;;4.80;91.80;;;;;;5018408;28;20199;-91
2024/01/06 06:08:56;;;;;;;2.30;1.27;;;4.80;91.90;;;;;;5013043;28;20207;-90
2024/01/06 06:11:22;;;;;;;2.83;2.17;;;4.80;92.00;;;;;;5013183;28;20228;-90
2024/01/06 06:13:49;;;;;;;3.55;2.20;;;4.80;92.00;;;;;;5013499;28;20231;-90
2024/01/06 06:16:16;;;;;;;2.45;1.73;;;4.80;91.80;;;;;;5013258;28;20284;-90
2024/01/06 06:18:43;;;;;;;2.97;2.38;;;4.80;91.60;;;;;;5030872;28;20243;-92
2024/01/06 06:21:10;;;;;;;3.75;2.25;;;4.80;91.70;;;;;;5019096;28;20220;-92
2024/01/06 06:23:39;;;;;;;3.38;1.83;;;4.90;91.90;;;;;;5026991;28;20192;-91
2024/01/06 06:29:05;;;;;;;3.45;2.22;;;4.90;92.00;;;;;;5011309;28;20192;-90
2024/01/06 06:31:32;;;;;;;2.92;1.90;;;4.90;91.90;;;;;;5012297;28;20697;-91
2024/01/06 06:33:59;;;;;;;3.85;2.05;;;4.90;91.90;;;;;;5014213;28;20231;-90
2024/01/06 06:36:30;;;;;;;3.42;2.33;;;4.90;91.90;;;;;;5016100;28;20208;-93
2024/01/06 06:38:59;;;;;;;3.05;2.38;;;4.90;91.90;;;;;;5015797;28;20215;-91
2024/01/06 06:41:26;;;;;;;4.22;2.53;;;4.90;91.90;;;;;;5016381;28;20585;-89
2024/01/06 06:43:53;;;;;;;5.53;3.10;;;4.90;91.80;;;;;;5015851;28;20191;-90
2024/01/06 06:46:20;;;;;;;6.75;5.00;;;4.90;91.70;;;;;;5016244;28;20188;-91
2024/01/06 06:48:47;;;;;;;10.15;4.63;;;4.80;91.90;;;;;;5014434;28;20642;-91
2024/01/06 06:51:14;;;;;;;6.43;4.00;;;4.80;92.10;;;;;;5013765;28;20188;-89
2024/01/06 06:53:44;;;;;;;5.25;3.83;;;4.80;92.30;;;;;;5014568;28;20488;-89
2024/01/06 06:56:16;;;;;;;5.47;3.63;;;4.90;92.20;;;;;;5014044;28;20267;-92
2024/01/06 06:58:44;;;;;;;4.85;2.45;;;4.90;92.10;;;;;;5013727;28;20549;-90
2024/01/06 07:01:11;;;;;;;5.07;3.05;;;4.90;91.50;;;;;;5014504;28;20255;-91
2024/01/06 07:03:38;;;;;;;6.40;5.47;;;4.90;91.60;;;;;;5014219;28;20212;-90
2024/01/06 07:06:06;;;;;;;5.10;4.20;;;4.70;91.70;;;;;;5014609;28;20196;-89
2024/01/06 07:08:33;;;;;;;5.18;4.05;;;4.70;91.80;;;;;;5013706;28;20216;-89
2024/01/06 07:11:01;;;;;;;4.30;3.22;;;4.60;92.20;;;;;;5015045;28;20228;-90
2024/01/06 07:13:31;;;;;;;2.97;2.40;;;4.70;92.10;;;;;;5020401;28;20184;-92
2024/01/06 07:15:58;;;;;;;3.60;2.70;;;4.60;92.10;;;;;;5026447;28;20278;-90
2024/01/06 07:18:26;;;;;;;3.50;2.38;;;4.50;92.40;;;;;;5020060;28;20600;-90
2024/01/06 07:20:53;;;;;;;3.95;2.58;;;4.50;93.00;;;;;;5032070;28;20228;-91
2024/01/06 07:23:19;;;;;;;7.38;3.08;;;4.60;93.20;;;;;;5027224;28;20222;-90
2024/01/06 07:25:46;;;;;;;3.40;2.85;;;4.60;93.20;;;;;;5027522;28;20222;-91
2024/01/06 07:28:13;;;;;;;4.82;3.42;;;4.60;93.30;;;;;;5014966;28;20283;-90
2024/01/06 07:30:42;;;;;;;6.28;4.20;;;4.70;93.40;;;;;;5028976;28;20863;-90
2024/01/06 07:33:11;;;;;;;7.00;5.50;;;4.70;92.90;;;;;;5013731;28;20207;-89
2024/01/06 07:35:42;;;;;;;6.07;3.95;;;4.70;93.00;;;;;;5030802;28;20657;-89
2024/01/06 07:38:10;;;;;;;5.40;4.18;;;4.70;93.20;;;;;;5025590;28;20622;-89
2024/01/06 07:40:37;;;;;;;5.88;4.60;;;4.80;93.40;;;;;;5027926;28;20736;-89
2024/01/06 07:43:04;;;;;;;6.82;5.35;;;4.70;93.10;;;;;;5028823;28;20194;-89
2024/01/06 07:45:31;;;;;;;4.80;3.58;;;4.80;93.00;;;;;;5011482;28;21413;-96
2024/01/06 07:48:00;;;;;;;6.10;4.80;;;4.80;93.10;;;;;;5022196;28;20227;-93
2024/01/06 07:50:27;;;;;;;4.40;3.75;;;4.70;93.20;;;;;;5031365;28;20234;-90
2024/01/06 07:52:54;;;;;;;5.50;4.05;;;4.80;93.40;;;;;;5024140;28;20574;-90
2024/01/06 07:55:22;;;;;;;5.72;4.28;;;4.90;93.60;;;;;;5022492;28;20216;-90
2024/01/06 07:57:49;;;;;;;7.50;5.53;;;4.90;93.60;;;;;;5022288;28;20283;-91
2024/01/06 08:00:16;;;;;;;7.40;4.43;;;4.90;93.50;;;;;;5027463;28;20208;-89
2024/01/06 08:02:43;;;;;;;4.72;3.28;;;5.00;93.60;;;;;;5030305;28;20187;-89
2024/01/06 08:05:12;;;;;;;4.03;3.15;;;5.00;93.50;;;;;;5025047;28;20188;-88
2024/01/06 08:07:40;;;;;;;4.78;2.95;;;5.00;92.90;;;;;;5012962;28;20192;-89
2024/01/06 08:10:08;;;;;;;4.07;3.08;;;5.00;92.90;;;;;;5013166;28;20648;-90
2024/01/06 08:12:35;;;;;;;5.30;2.90;;;5.00;92.80;;;;;;5029862;28;20195;-88
2024/01/06 08:15:04;;;;;;;4.68;2.90;;;4.90;93.00;;;;;;5030281;28;20196;-88
2024/01/06 08:17:31;;;;;;;7.07;4.20;;;4.90;93.20;;;;;;5030767;28;20191;-89
2024/01/06 08:19:58;;;;;;;6.90;5.65;;;4.90;93.40;;;;;;5029315;28;20215;-90
2024/01/06 08:22:27;;;;;;;8.05;6.57;;;5.00;93.50;;;;;;5030550;28;20188;-88
2024/01/06 08:24:54;;;;;;;8.07;6.63;;;5.00;93.80;;;;;;5031044;28;20197;-88
2024/01/06 08:27:21;;;;;;;6.03;5.35;;;5.00;93.80;;;;;;5030905;28;20196;-89
2024/01/06 08:29:49;;;;;;;5.75;4.95;;;5.00;94.10;;;;;;5030018;28;20191;-87
2024/01/06 08:32:16;;;;;;;5.78;3.67;;;5.00;94.10;;;;;;5030523;28;20196;-89
2024/01/06 08:34:43;;;;;;;4.13;3.60;;;5.00;94.00;;;;;;5030701;28;20230;-88
2024/01/06 08:37:10;;;;;;;5.05;3.28;;;5.10;94.10;;;;;;5030357;28;20195;-88
2024/01/06 08:39:38;;;;;;;7.25;3.65;;;5.10;94.00;;;;;;5012223;28;20216;-87
2024/01/06 08:42:06;;;;;;;4.75;3.25;;;5.20;93.90;;;;;;5012698;28;20598;-88
2024/01/06 08:44:33;;;;;;;4.32;3.13;;;5.20;93.70;;;;;;5017638;28;20219;-88
2024/01/06 08:47:02;;;;;;;4.78;2.90;;;5.20;93.40;;;;;;5025643;28;20187;-89
2024/01/06 08:49:29;;;;;;;4.78;3.45;;;5.30;93.30;;;;;;5010661;28;20199;-88
2024/01/06 08:51:56;;;;;;;4.20;3.05;;;5.30;93.10;;;;;;5012758;28;21074;-90
2024/01/06 08:54:24;;;;;;;5.10;3.50;;;5.30;92.60;;;;;;5013349;28;20193;-87
2024/01/06 08:56:52;;;;;;;3.92;2.88;;;5.30;91.90;;;;;;5017429;28;20211;-91
2024/01/06 08:59:20;;;;;;;4.40;2.92;;;5.30;91.20;;;;;;5015744;28;20246;-87
2024/01/06 09:01:48;;;;;;;5.40;3.95;;;5.30;91.50;;;;;;5026379;28;20291;-88
2024/01/06 09:04:15;;;;;;;4.30;3.03;;;5.30;91.80;;;;;;5029624;28;20199;-87
2024/01/06 09:06:42;;;;;;;6.32;3.92;;;5.30;92.00;;;;;;5027634;28;20199;-87
2024/01/06 09:09:10;;;;;;;4.13;2.83;;;5.30;92.40;;;;;;5009020;28;20204;-88
2024/01/06 09:11:37;;;;;;;4.30;2.70;;;5.40;92.20;;;;;;5011641;28;20238;-87
2024/01/06 09:14:10;;;;;;;6.15;3.72;;;5.30;92.00;;;;;;5011719;28;20189;-87
2024/01/06 09:16:37;;;;;;;6.90;3.17;;;5.40;92.30;;;;;;5011869;28;20246;-88
2024/01/06 09:19:04;;;;;;;6.47;4.38;;;5.30;91.80;;;;;;5012155;28;20233;-88
2024/01/06 09:21:32;;;;;;;4.32;2.88;;;5.30;92.10;;;;;;5011864;28;20265;-87
2024/01/06 09:24:00;;;;;;;5.47;3.85;;;5.30;92.20;;;;;;5014589;28;20184;-88
2024/01/06 09:26:27;;;;;;;6.55;4.40;;;5.30;92.20;;;;;;5012373;28;20188;-86
2024/01/06 09:28:54;;;;;;;3.78;2.55;;;5.30;92.30;;;;;;5012335;28;20193;-87
2024/01/06 09:31:28;;;;;;;3.75;2.88;;;5.30;91.80;;;;;;5012518;28;20495;-87
2024/01/06 09:33:55;;;;;;;6.03;4.20;;;5.30;91.80;;;;;;5012354;28;20247;-87
2024/01/06 09:36:22;;;;;;;5.82;3.25;;;5.20;92.00;;;;;;5012161;28;20230;-87
2024/01/06 09:38:49;;;;;;;6.10;3.88;;;5.10;92.60;;;;;;5012139;28;20192;-87
2024/01/06 09:41:20;;;;;;;5.68;3.65;;;5.10;93.00;;;;;;5009573;28;20210;-87
2024/01/06 09:43:51;;;;;;;6.25;3.80;;;5.10;93.30;;;;;;5010265;28;20239;-87
2024/01/06 09:46:26;;;;;;;6.15;4.13;;;5.20;93.20;;;;;;5018502;28;20657;-87
2024/01/06 09:48:56;;;;;;;6.13;5.00;;;5.20;93.30;;;;;;5003849;28;20294;-88
2024/01/06 09:51:24;;;;;;;13.20;9.70;;;5.20;93.30;;;;;;5012875;28;20932;-87
2024/01/06 09:53:57;;;;;;;10.30;6.80;;;5.20;93.20;;;;;;5024800;28;20195;-88
2024/01/06 09:56:27;;;;;;;8.73;4.63;;;5.20;92.90;;;;;;5008431;28;20196;-87
2024/01/06 09:58:54;;;;;;;6.38;4.00;;;5.20;93.00;;;;;;5011107;28;20203;-87
2024/01/06 10:01:22;;;;;;;4.78;3.22;;;5.30;93.30;;;;;;5011178;28;20283;-88
2024/01/06 10:03:49;;;;;;;5.00;3.40;;;5.40;93.40;;;;;;5024165;28;20550;-87
2024/01/06 10:06:18;;;;;;;4.88;3.55;;;5.40;93.30;;;;;;5020233;28;20192;-90
2024/01/06 10:08:48;;;;;;;5.28;3.65;;;5.60;93.40;;;;;;5011019;28;20724;-89
2024/01/06 10:11:17;;;;;;;8.30;5.25;;;5.60;93.20;;;;;;5010753;28;20242;-88
2024/01/06 10:13:46;;;;;;;5.13;4.25;;;5.70;93.00;;;;;;5013971;28;20188;-88
2024/01/06 10:16:13;;;;;;;4.88;3.53;;;5.70;92.80;;;;;;5014735;28;20200;-88
2024/01/06 10:18:41;;;;;;;6.40;3.83;;;5.70;92.60;;;;;;5018074;28;20188;-89
2024/01/06 10:21:08;;;;;;;5.60;3.60;;;5.70;92.60;;;;;;5008968;28;20212;-88
2024/01/06 10:23:37;;;;;;;5.85;3.83;;;5.70;92.20;;;;;;5017832;28;20206;-87
2024/01/06 10:26:05;;;;;;;6.32;3.35;;;5.60;91.90;;;;;;5015651;28;20710;-87
2024/01/06 10:28:32;;;;;;;4.85;3.03;;;5.60;92.30;;;;;;5022418;28;20549;-88
2024/01/06 10:30:59;;;;;;;4.85;2.88;;;5.60;92.40;;;;;;5024412;28;20188;-88
2024/01/06 10:33:27;;;;;;;5.70;3.60;;;5.60;92.80;;;;;;5014677;28;20654;-87
2024/01/06 10:35:55;;;;;;;5.32;3.42;;;5.70;93.00;;;;;;5016485;28;20200;-87
2024/01/06 10:38:24;;;;;;;5.85;4.05;;;5.80;93.20;;;;;;5013800;28;20242;-88
2024/01/06 10:41:07;;;;;;;5.35;4.70;;;5.80;93.30;;;;;;5014976;28;20623;-88
2024/01/06 10:43:37;;;;;;;4.75;3.58;;;5.80;93.30;;;;;;5024824;28;20196;-88
2024/01/06 10:46:05;;;;;;;37.17;11.45;;;5.80;93.30;;;;;;5018109;28;20187;-88
2024/01/06 10:48:34;;;;;;;5.90;4.13;;;5.90;93.40;;;;;;5013560;28;20203;-91
2024/01/06 10:51:07;;;;;;;7.82;3.92;;;5.90;93.30;;;;;;5013950;28;20247;-88
2024/01/06 10:53:35;;;;;;;5.15;3.90;;;5.90;93.20;;;;;;5015005;28;20275;-88
2024/01/06 10:56:06;;;;;;;4.63;3.55;;;5.90;93.10;;;;;;5012721;28;20201;-88
2024/01/06 10:58:37;;;;;;;4.78;3.28;;;5.90;93.20;;;;;;5007048;28;20347;-87
2024/01/06 11:01:05;;;;;;;4.60;3.53;;;6.00;93.30;;;;;;5016764;28;20543;-89
2024/01/06 11:03:32;;;;;;;5.45;3.67;;;6.00;93.20;;;;;;5015135;28;20223;-88
2024/01/06 11:06:00;;;;;;;5.55;3.78;;;6.00;93.20;;;;;;5012697;28;20204;-92
2024/01/06 11:08:29;;;;;;;3.92;3.03;;;6.10;93.30;;;;;;5023778;28;20191;-89
2024/01/06 11:10:58;;;;;;;7.32;5.10;;;6.10;93.20;;;;;;5014001;28;20558;-88
2024/01/06 11:13:28;;;;;;;8.13;6.00;;;6.10;93.30;;;;;;5011223;28;20192;-89
2024/01/06 11:15:56;;;;;;;5.28;4.40;;;6.10;92.80;;;;;;5015308;28;20543;-88
2024/01/06 11:18:34;;;;;;;7.95;4.68;;;6.10;92.60;;;;;;5003012;28;20726;-88
2024/01/06 11:21:18;;;;;;;6.45;4.22;;;6.10;92.50;;;;;;5004725;28;20379;-89
2024/01/06 11:23:46;;;;;;;8.43;5.43;;;6.10;92.30;;;;;;5006611;28;20246;-88
2024/01/06 11:26:17;;;;;;;5.75;3.65;;;6.10;92.00;;;;;;5007079;28;20662;-89
2024/01/06 11:28:50;;;;;;;6.72;4.60;;;6.10;91.70;;;;;;5005620;28;20245;-92
2024/01/06 11:31:17;;;;;;;10.43;7.82;;;6.10;91.40;;;;;;5014606;28;20188;-89
2024/01/06 11:33:44;;;;;;;7.97;5.88;;;6.10;91.20;;;;;;5017897;28;20203;-88
2024/01/06 11:36:12;;;;;;;7.00;4.78;;;6.10;90.80;;;;;;5013697;28;20196;-88
2024/01/06 11:38:40;;;;;;;6.60;5.05;;;6.00;90.90;;;;;;5013390;28;20323;-88
2024/01/06 11:41:52;;;;;;;5.50;3.70;;;6.00;90.70;;;;;;5010254;28;20403;-92
2024/01/06 11:44:24;;;;;;;6.10;4.25;;;5.90;90.90;;;;;;5020430;28;20196;-87
2024/01/06 11:49:38;;;;;;;4.32;3.08;;;5.90;91.10;;;;;;5000980;28;20656;-88
2024/01/06 11:52:09;;;;;;;5.97;3.72;;;5.90;91.10;;;;;;5019965;28;20194;-88
2024/01/06 11:54:36;;;;;;;6.43;4.18;;;5.90;91.30;;;;;;5008697;28;20196;-87
2024/01/06 11:57:04;;;;;;;6.05;3.90;;;6.00;91.50;;;;;;5008186;28;20452;-87
2024/01/06 11:59:33;;;;;;;4.72;3.20;;;6.00;90.90;;;;;;5015982;28;20192;-88
2024/01/06 12:02:01;;;;;;;7.60;3.40;;;6.00;90.00;;;;;;5009670;28;20198;-88
2024/01/06 12:04:32;;;;;;;6.25;4.00;;;6.00;90.10;;;;;;5006523;28;20221;-88
2024/01/06 12:10:47;;;;;;;7.47;2.90;;;5.90;90.50;;;;;;4984764;28;20933;-87
2024/01/06 12:13:56;;;;;;;5.28;3.47;;;5.90;90.10;;;;;;5012313;28;20587;-90
2024/01/06 12:16:32;;;;;;;3.78;2.75;;;5.80;90.00;;;;;;5005294;28;20200;-91
2024/01/06 12:19:00;;;;;;;5.50;3.03;;;5.80;89.80;;;;;;4982993;28;20215;-88
2024/01/06 12:21:37;;;;;;;4.00;2.90;;;5.70;89.60;;;;;;5001568;28;20372;-90
2024/01/06 12:25:09;;;;;;;3.83;2.75;;;5.70;89.40;;;;;;5005938;28;20556;-92
2024/01/06 12:27:42;;;;;;;4.60;2.90;;;5.60;89.10;;;;;;5005248;28;20702;-89
2024/01/06 12:30:18;;;;;;;5.88;2.88;;;5.60;89.20;;;;;;5022709;28;20545;-88
2024/01/06 12:32:49;;;;;;;5.63;2.30;;;5.60;89.90;;;;;;5019530;28;20290;-90
2024/01/06 12:35:16;;;;;;;5.53;2.90;;;5.50;89.60;;;;;;5017201;28;20175;-92
2024/01/06 12:37:44;;;;;;;4.50;3.10;;;5.50;90.20;;;;;;5018819;28;20192;-89
2024/01/06 12:40:14;;;;;;;3.92;3.42;;;5.50;89.60;;;;;;5013236;28;20223;-88
2024/01/06 12:42:42;;;;;;;6.18;3.00;;;5.40;90.10;;;;;;5020195;28;20557;-90
2024/01/06 12:45:11;;;;;;;6.93;3.22;;;5.40;90.60;;;;;;5022711;28;20261;-88
2024/01/06 12:47:38;;;;;;;5.35;3.20;;;5.40;90.70;;;;;;5031028;28;20215;-87
2024/01/06 12:50:09;;;;;;;4.38;3.38;;;5.40;90.40;;;;;;5030418;28;20527;-88
2024/01/06 12:52:37;;;;;;;4.38;3.08;;;5.30;90.40;;;;;;5012219;28;20267;-89
2024/01/06 12:55:06;;;;;;;5.40;2.90;;;5.40;90.70;;;;;;5014469;28;20250;-89
2024/01/06 12:57:33;;;;;;;12.68;3.25;;;5.40;90.70;;;;;;5013123;28;20195;-89
2024/01/06 13:00:01;;;;;;;4.53;2.92;;;5.40;90.60;;;;;;5016218;28;20220;-88
2024/01/06 13:02:28;;;;;;;3.65;2.65;;;5.40;90.70;;;;;;5023271;28;20287;-88
2024/01/06 13:04:56;;;;;;;4.55;3.05;;;5.40;90.80;;;;;;5029672;28;20211;-88
2024/01/06 13:07:25;;;;;;;4.97;3.40;;;5.40;91.10;;;;;;5019832;28;20195;-88
2024/01/06 13:09:57;;;;;;;6.13;4.82;;;5.40;91.20;;;;;;5021571;28;20311;-92
2024/01/06 13:12:24;;;;;;;10.45;6.20;;;5.50;90.60;;;;;;5002238;28;20203;-89
2024/01/06 13:14:51;;;;;;;4.90;3.58;;;5.40;91.00;;;;;;5025746;28;20668;-88